Time;durP1;ratioP1;P1;durP2;ratioP2;P2;SDS_P1;SDS_P2;PMS_P1;PMS_P2;Temp;Humidity;BMP_temperature;BMP_pressure;BME280_temperature;BME280_humidity;BME280_pressure;Samples;Min_cycle;Max_cycle;Signal;HPM_P1;HPM_P2
2021/12/01 00:02:54;;;;;;;5.47;2.15;;;;;;;3.77;71.59;98812.40;2187814;80;31034;-66
2021/12/01 00:05:56;;;;;;;4.60;1.90;;;;;;;3.77;71.33;98805.77;2144958;82;33049;-65
2021/12/01 00:08:58;;;;;;;9.30;2.22;;;;;;;3.77;71.69;98824.31;2204646;80;30607;-59
2021/12/01 00:12:02;;;;;;;3.35;1.42;;;;;;;3.79;71.71;98836.16;2134999;82;27748;-59
2021/12/01 00:15:06;;;;;;;5.47;1.98;;;;;;;3.79;71.69;98842.77;2166218;80;29375;-59
2021/12/01 00:18:09;;;;;;;8.78;2.58;;;;;;;3.79;71.72;98846.30;2148188;81;31496;-64
2021/12/01 00:21:12;;;;;;;6.80;1.65;;;;;;;3.78;71.69;98860.92;2170234;80;33010;-61
2021/12/01 00:24:14;;;;;;;3.33;1.62;;;;;;;3.78;71.71;98868.42;2112564;82;29365;-62
2021/12/01 00:27:16;;;;;;;5.17;1.50;;;;;;;3.78;71.82;98865.77;2148023;81;27595;-68
2021/12/01 00:30:19;;;;;;;3.75;1.45;;;;;;;3.78;71.58;98876.36;2148193;81;29941;-66
2021/12/01 00:33:22;;;;;;;6.10;1.40;;;;;;;3.79;71.82;98888.68;2186139;80;30868;-65
2021/12/01 00:36:28;;;;;;;3.42;1.45;;;;;;;3.79;71.73;98889.13;2192836;80;34112;-69
2021/12/01 00:39:31;;;;;;;6.30;2.37;;;;;;;3.81;71.78;98901.84;2182020;80;29696;-68
2021/12/01 00:42:33;;;;;;;4.72;1.72;;;;;;;3.81;71.88;98908.47;2191927;80;28273;-70
2021/12/01 00:45:34;;;;;;;8.25;1.80;;;;;;;3.83;71.89;98924.28;2182726;80;29827;-63
2021/12/01 00:48:37;;;;;;;9.75;2.10;;;;;;;3.80;71.71;98922.19;2181268;81;32383;-70
2021/12/01 00:51:39;;;;;;;3.67;1.45;;;;;;;3.79;71.86;98936.36;2191615;80;33010;-70
2021/12/01 00:54:40;;;;;;;6.83;2.05;;;;;;;3.81;71.91;98938.93;2207352;79;29715;-67
2021/12/01 00:57:43;;;;;;;7.28;2.37;;;;;;;3.81;71.92;98944.23;2141619;82;27715;-63
2021/12/01 01:00:48;;;;;;;5.05;1.60;;;;;;;3.79;72.00;98946.95;2148064;81;28645;-68
2021/12/01 01:03:49;;;;;;;7.05;2.37;;;;;;;3.81;72.02;98952.17;2219988;79;31088;-68
2021/12/01 01:06:51;;;;;;;6.45;1.90;;;;;;;3.77;71.77;98960.73;2211952;79;33116;-67
2021/12/01 01:09:53;;;;;;;2.58;1.25;;;;;;;3.74;71.60;98952.03;2206154;79;30534;-67
2021/12/01 01:16:24;;;;;;;7.62;1.57;;;;;;;3.68;71.58;98973.02;2213774;79;28696;-68
2021/12/01 01:19:26;;;;;;;4.20;1.50;;;;;;;3.67;71.71;98983.70;2224028;79;32214;-66
2021/12/01 01:22:28;;;;;;;4.40;1.67;;;;;;;3.66;71.82;98989.44;2159150;81;34191;-58
2021/12/01 01:25:31;;;;;;;2.65;1.40;;;;;;;3.64;71.59;98986.87;2205350;79;30677;-68
2021/12/01 01:28:33;;;;;;;8.20;1.90;;;;;;;3.61;71.56;99001.56;2205741;79;27663;-68
2021/12/01 01:31:36;;;;;;;7.30;2.10;;;;;;;3.61;71.76;99000.23;2207184;79;29119;-66
2021/12/01 01:34:38;;;;;;;4.72;1.85;;;;;;;3.62;71.85;99003.28;2136820;82;31034;-68
2021/12/01 01:37:41;;;;;;;1.98;1.50;;;;;;;3.61;71.65;99008.18;2227563;79;32947;-68
2021/12/01 01:40:43;;;;;;;5.05;1.52;;;;;;;3.60;71.67;99027.64;2206239;79;29332;-63
2021/12/01 01:43:48;;;;;;;4.35;1.87;;;;;;;3.59;71.64;99031.69;2198675;79;28185;-67
2021/12/01 01:46:49;;;;;;;;;;;;;;;3.58;71.62;99040.08;2176346;81;28661;-68
2021/12/01 01:49:59;;;;;;;5.78;2.10;;;;;;;3.56;71.65;99039.28;2185424;80;31372;-64
2021/12/01 01:52:57;;;;;;;3.58;1.45;;;;;;;3.53;71.65;99031.48;2187308;80;34175;-63
2021/12/01 01:56:03;;;;;;;4.78;1.70;;;;;;;3.52;71.69;99036.83;2131658;82;28984;-68
2021/12/01 01:59:05;;;;;;;5.78;1.92;;;;;;;3.49;71.69;99036.02;2155392;81;27700;-65
2021/12/01 02:02:07;;;;;;;2.62;1.10;;;;;;;3.48;71.66;99040.92;2125498;82;29900;-67
2021/12/01 02:05:09;;;;;;;2.70;1.42;;;;;;;3.46;71.48;99043.23;2145312;83;30968;-66
2021/12/01 02:08:19;;;;;;;5.37;1.72;;;;;;;3.43;71.47;99046.00;2160257;81;34169;-67
2021/12/01 02:11:22;;;;;;;3.47;1.75;;;;;;;3.40;71.48;99047.45;2161563;81;30294;-67
2021/12/01 02:14:25;;;;;;;6.97;1.80;;;;;;;3.36;71.48;99060.43;2152725;81;27627;-64
2021/12/01 02:17:27;;;;;;;2.90;1.70;;;;;;;3.29;71.41;99060.66;2120987;83;29559;-66
2021/12/01 02:20:29;;;;;;;4.35;1.50;;;;;;;3.22;71.41;99059.65;2160624;81;31861;-67
2021/12/01 02:23:36;;;;;;;2.62;1.72;;;;;;;3.10;71.35;99068.48;2152082;81;33109;-68
2021/12/01 02:26:43;;;;;;;4.00;1.30;;;;;;;3.00;71.42;99059.16;2170288;81;29910;-65
2021/12/01 02:29:47;;;;;;;5.87;1.77;;;;;;;2.90;71.42;99066.58;2154339;81;27682;-67
2021/12/01 02:32:54;;;;;;;4.35;1.60;;;;;;;2.79;71.52;99084.20;2154200;81;29113;-67
2021/12/01 02:35:57;;;;;;;3.90;2.17;;;;;;;2.68;71.57;99078.42;2140129;81;31663;-65
2021/12/01 02:38:59;;;;;;;4.70;1.70;;;;;;;2.58;71.70;99091.12;2152874;81;33385;-60
2021/12/01 02:42:07;;;;;;;3.87;1.60;;;;;;;2.51;71.79;99098.89;2139671;81;30581;-61
2021/12/01 02:45:09;;;;;;;5.75;1.77;;;;;;;2.43;71.92;99109.27;2158576;81;27824;-61
2021/12/01 02:48:13;;;;;;;5.22;2.00;;;;;;;2.39;72.10;99109.44;2159844;81;30112;-60
2021/12/01 02:51:16;;;;;;;6.62;1.80;;;;;;;2.33;72.27;99115.80;2153928;81;31501;-60
2021/12/01 02:54:18;;;;;;;7.05;2.02;;;;;;;2.31;72.46;99118.95;2153260;81;33807;-59
2021/12/01 02:57:20;;;;;;;5.45;1.65;;;;;;;2.31;72.57;99120.27;2170325;81;29733;-58
2021/12/01 03:00:23;;;;;;;6.58;1.62;;;;;;;2.30;72.62;99117.23;2154830;81;28287;-58
2021/12/01 03:03:25;;;;;;;8.38;1.67;;;;;;;2.28;72.67;99119.94;2140623;81;29993;-58
2021/12/01 03:06:29;;;;;;;8.83;2.05;;;;;;;2.28;72.75;99120.38;2159105;81;31441;-59
2021/12/01 03:09:30;;;;;;;7.33;1.92;;;;;;;2.27;72.90;99122.17;2136315;81;33817;-58
2021/12/01 03:12:36;;;;;;;6.28;1.70;;;;;;;2.27;72.99;99120.85;2165081;81;29343;-57
2021/12/01 03:15:38;;;;;;;5.12;1.90;;;;;;;2.27;72.93;99121.29;2150613;81;27612;-66
2021/12/01 03:18:40;;;;;;;8.80;2.42;;;;;;;2.25;72.98;99119.16;2145912;81;29174;-63
2021/12/01 03:21:44;;;;;;;11.10;2.12;;;;;;;2.24;73.06;99133.28;2144826;81;31009;-67
2021/12/01 03:24:47;;;;;;;5.37;1.90;;;;;;;2.24;73.18;99128.00;2157520;81;33558;-65
2021/12/01 03:27:49;;;;;;;7.03;2.17;;;;;;;2.26;73.21;99122.20;2158356;81;29154;-69
2021/12/01 03:30:51;;;;;;;5.65;1.70;;;;;;;2.27;73.28;99119.97;2154619;81;27813;-68
2021/12/01 03:33:53;;;;;;;4.28;1.80;;;;;;;2.32;73.47;99114.55;2139159;83;30128;-63
2021/12/01 03:36:55;;;;;;;7.47;2.27;;;;;;;2.34;73.40;99108.72;2149290;81;31948;-64
2021/12/01 03:39:58;;;;;;;6.20;2.10;;;;;;;2.38;73.40;99108.59;2141781;81;33026;-67
2021/12/01 03:43:00;;;;;;;4.33;1.60;;;;;;;2.39;73.35;99097.10;2132256;82;29741;-68
2021/12/01 03:46:02;;;;;;;5.12;1.50;;;;;;;2.42;73.32;99093.47;2157648;81;27773;-60
2021/12/01 03:49:04;;;;;;;10.35;3.30;;;;;;;2.45;73.41;99102.63;2172053;81;29707;-68
2021/12/01 03:52:12;;;;;;;4.65;2.02;;;;;;;2.48;73.51;99095.91;2128876;83;30852;-65
2021/12/01 03:55:11;;;;;;;3.00;1.32;;;;;;;2.52;73.50;99092.21;2158340;81;34273;-62
2021/12/01 03:58:14;;;;;;;5.10;1.57;;;;;;;2.56;73.49;99083.73;2144844;81;29803;-64
2021/12/01 04:01:16;;;;;;;2.15;1.35;;;;;;;2.61;73.51;99096.78;2178643;81;27607;-65
2021/12/01 04:04:19;;;;;;;6.37;1.52;;;;;;;2.64;73.59;99095.35;2168207;81;29418;-69
2021/12/01 04:07:20;;;;;;;4.67;1.50;;;;;;;2.67;73.47;99098.73;2096468;84;32262;-61
2021/12/01 04:10:22;;;;;;;11.28;2.05;;;;;;;2.71;73.55;99094.19;2115639;82;34360;-62
2021/12/01 04:13:27;;;;;;;5.87;2.10;;;;;;;2.71;73.50;99083.17;2151070;82;29162;-60
2021/12/01 04:16:29;;;;;;;;;;;;;;;2.73;73.49;99081.77;2187347;81;27706;-67
2021/12/01 04:19:31;;;;;;;5.78;2.30;;;;;;;2.72;73.57;99081.38;2166762;81;28486;-66
2021/12/01 04:22:33;;;;;;;7.03;2.02;;;;;;;2.68;73.55;99072.70;2150336;82;31086;-63
2021/12/01 04:25:35;;;;;;;4.55;2.08;;;;;;;2.67;73.58;99074.94;2175447;81;33835;-60
2021/12/01 04:28:37;;;;;;;4.90;1.82;;;;;;;2.63;73.47;99068.50;2181354;81;29461;-63
2021/12/01 04:31:40;;;;;;;4.22;2.20;;;;;;;2.60;73.49;99062.00;2172873;81;28289;-67
2021/12/01 04:34:42;;;;;;;6.67;2.55;;;;;;;2.55;73.38;99055.57;2158006;81;29588;-61
2021/12/01 04:37:45;;;;;;;7.33;2.37;;;;;;;2.48;73.16;99064.63;2178811;81;32412;-62
2021/12/01 04:40:47;;;;;;;5.90;2.00;;;;;;;2.38;73.18;99065.42;2158820;81;32966;-61
2021/12/01 04:43:49;;;;;;;5.00;2.47;;;;;;;2.30;73.10;99063.05;2171771;81;29376;-58
2021/12/01 04:46:56;;;;;;;7.22;2.50;;;;;;;2.21;73.01;99071.33;2182041;81;28608;-61
2021/12/01 04:49:57;;;;;;;7.20;2.33;;;;;;;2.13;72.93;99069.80;2169465;81;29244;-70
2021/12/01 04:52:59;;;;;;;4.22;2.58;;;;;;;2.03;72.98;99075.45;2179886;81;31878;-68
2021/12/01 04:56:01;;;;;;;7.00;3.33;;;;;;;1.93;72.95;99081.06;2185098;79;33851;-57
2021/12/01 04:59:04;;;;;;;4.80;2.12;;;;;;;1.82;72.84;99079.25;2206233;79;29507;-65
2021/12/01 05:02:06;;;;;;;7.22;2.20;;;;;;;1.72;72.83;99072.53;2187876;79;27706;-70
2021/12/01 05:05:08;;;;;;;8.48;2.55;;;;;;;1.62;73.01;99070.21;2213450;79;28653;-64
2021/12/01 05:08:10;;;;;;;8.80;3.00;;;;;;;1.54;73.13;99067.41;2215123;79;31892;-59
2021/12/01 05:11:11;;;;;;;10.98;4.42;;;;;;;1.45;73.19;99061.51;2178991;80;33069;-69
2021/12/01 05:14:14;;;;;;;14.60;4.65;;;;;;;1.38;73.12;99060.44;2201321;79;29679;-69
2021/12/01 05:17:19;;;;;;;16.25;5.17;;;;;;;1.29;73.18;99065.11;2208133;79;27640;-59
2021/12/01 05:20:20;;;;;;;17.67;5.37;;;;;;;1.23;73.36;99062.66;2213432;79;30782;-59
2021/12/01 05:23:22;;;;;;;16.67;3.72;;;;;;;1.16;73.32;99067.73;2217381;79;31615;-71
2021/12/01 05:26:23;;;;;;;10.50;3.95;;;;;;;1.09;73.29;99068.81;2229026;79;34222;-72
2021/12/01 05:29:26;;;;;;;11.70;4.45;;;;;;;1.01;73.45;99069.05;2213714;79;30258;-64
2021/12/01 05:32:30;;;;;;;13.22;4.15;;;;;;;0.94;73.44;99069.70;2230682;79;28238;-69
2021/12/01 05:35:33;;;;;;;7.05;3.52;;;;;;;0.87;73.47;99070.34;2122633;82;29375;-60
2021/12/01 05:38:35;;;;;;;7.47;2.80;;;;;;;0.81;73.60;99063.07;2142923;82;31154;-65
2021/12/01 05:41:37;;;;;;;8.98;3.72;;;;;;;0.75;73.78;99058.38;2157251;81;33372;-63
2021/12/01 05:44:40;;;;;;;7.30;2.92;;;;;;;0.72;73.85;99051.88;2150112;81;29542;-63
2021/12/01 05:47:42;;;;;;;8.55;3.20;;;;;;;0.68;73.86;99061.24;2134875;82;27710;-60
2021/12/01 05:50:45;;;;;;;12.60;5.12;;;;;;;0.62;73.94;99049.11;2201056;80;29467;-62
2021/12/01 05:53:48;;;;;;;17.82;7.45;;;;;;;0.59;74.14;99043.45;2223819;79;31436;-67
2021/12/01 05:56:50;;;;;;;24.30;8.55;;;;;;;0.58;74.38;99041.73;2201573;79;34224;-60
2021/12/01 05:59:52;;;;;;;20.08;8.40;;;;;;;0.61;74.66;99032.89;2216722;79;29779;-68
2021/12/01 06:02:53;;;;;;;17.42;7.85;;;;;;;0.66;74.87;99038.02;2216305;79;27578;-58
2021/12/01 06:05:55;;;;;;;16.12;7.83;;;;;;;0.70;75.02;99029.12;2229104;79;29472;-66
2021/12/01 06:08:57;;;;;;;19.12;7.25;;;;;;;0.77;75.23;99025.37;2220578;79;31425;-63
2021/12/01 06:11:58;;;;;;;17.82;6.80;;;;;;;0.84;75.29;99021.65;2215476;78;33342;-69
2021/12/01 06:15:01;;;;;;;16.50;6.10;;;;;;;0.90;75.30;99010.05;2228196;79;30506;-65
2021/12/01 06:18:03;;;;;;;14.28;5.90;;;;;;;0.98;75.36;99002.78;2232083;79;27616;-70
2021/12/01 06:21:04;;;;;;;18.17;6.92;;;;;;;1.05;75.55;98997.70;2231971;79;29103;-66
2021/12/01 06:24:06;;;;;;;22.25;7.95;;;;;;;1.13;75.56;98988.69;2232539;79;31050;-59
2021/12/01 06:27:08;;;;;;;23.38;7.47;;;;;;;1.19;75.55;98990.67;2227307;79;33441;-63
2021/12/01 06:30:12;;;;;;;27.60;8.15;;;;;;;1.28;75.52;98988.19;2212790;79;30419;-60
2021/12/01 06:33:13;;;;;;;17.80;7.95;;;;;;;1.35;75.50;98978.30;2150813;81;27684;-58
2021/12/01 06:36:16;;;;;;;21.60;7.92;;;;;;;1.39;75.46;98972.01;2150162;82;29187;-58
2021/12/01 06:39:18;;;;;;;16.27;7.60;;;;;;;1.45;75.43;98977.53;2207421;79;31294;-59
2021/12/01 06:42:20;;;;;;;25.08;7.47;;;;;;;1.49;75.40;98991.03;2229264;79;34089;-57
2021/12/01 06:45:22;;;;;;;21.12;8.55;;;;;;;1.51;75.41;98987.42;2124104;81;29774;-60
2021/12/01 06:48:23;;;;;;;22.32;7.53;;;;;;;1.55;75.41;98982.89;2141984;83;28296;-58
2021/12/01 06:51:26;;;;;;;20.32;7.08;;;;;;;1.59;75.40;98974.40;2165858;81;28683;-57
2021/12/01 06:54:28;;;;;;;21.68;8.23;;;;;;;1.62;75.39;98972.55;2169143;80;32322;-57
2021/12/01 06:57:29;;;;;;;26.17;7.97;;;;;;;1.64;75.32;98961.48;2162975;81;34306;-56
2021/12/01 07:00:31;;;;;;;26.00;9.43;;;;;;;1.66;75.33;98953.48;2172574;81;30595;-56
2021/12/01 07:03:35;;;;;;;28.95;9.58;;;;;;;1.69;75.31;98953.83;2190825;80;27689;-62
2021/12/01 07:06:37;;;;;;;21.37;8.73;;;;;;;1.74;75.39;98946.62;2192819;80;29624;-66
2021/12/01 07:09:40;;;;;;;23.87;8.65;;;;;;;1.79;75.36;98938.09;2183079;80;30836;-58
2021/12/01 07:12:43;;;;;;;20.37;7.97;;;;;;;1.84;75.36;98932.63;2183751;80;32965;-63
2021/12/01 07:15:45;;;;;;;29.55;8.43;;;;;;;1.91;75.42;98931.03;2181691;80;29337;-61
2021/12/01 07:18:47;;;;;;;19.73;8.13;;;;;;;2.00;75.45;98919.27;2193839;80;27733;-59
2021/12/01 07:21:49;;;;;;;26.12;10.08;;;;;;;2.10;75.37;98909.23;2178971;80;29893;-60
2021/12/01 07:24:51;;;;;;;33.85;11.18;;;;;;;2.19;75.20;98911.98;2180343;80;31517;-64
2021/12/01 07:27:53;;;;;;;30.35;9.03;;;;;;;2.31;75.29;98901.42;2187149;80;33909;-57
2021/12/01 07:30:55;;;;;;;23.27;8.80;;;;;;;2.38;74.94;98900.23;2202516;80;30520;-63
2021/12/01 07:33:57;;;;;;;21.10;8.00;;;;;;;2.45;74.98;98892.48;2195901;80;28235;-58
2021/12/01 07:36:59;;;;;;;23.10;9.00;;;;;;;2.54;74.85;98894.75;2189305;80;29087;-59
2021/12/01 07:40:00;;;;;;;22.42;8.98;;;;;;;2.64;74.71;98883.83;2193769;80;31643;-62
2021/12/01 07:43:02;;;;;;;30.10;11.38;;;;;;;2.72;74.52;98880.40;2202215;80;34346;-61
2021/12/01 07:46:05;;;;;;;22.90;9.30;;;;;;;2.79;74.64;98858.09;2159088;81;29533;-59
2021/12/01 07:49:07;;;;;;;23.10;9.85;;;;;;;2.97;74.41;98859.09;2155421;81;28321;-58
2021/12/01 07:52:10;;;;;;;24.23;8.63;;;;;;;3.12;74.39;98853.63;2210115;80;29868;-58
2021/12/01 07:55:12;;;;;;;19.20;8.40;;;;;;;3.23;74.34;98840.39;2193228;78;31729;-59
2021/12/01 07:58:15;;;;;;;25.27;8.90;;;;;;;3.36;74.21;98838.08;2196012;80;34191;-57
2021/12/01 08:01:16;;;;;;;26.37;10.13;;;;;;;3.47;74.23;98822.13;2185317;80;30095;-58
2021/12/01 08:04:18;;;;;;;17.90;8.73;;;;;;;3.55;73.62;98825.75;2188363;80;27757;-59
2021/12/01 08:07:20;;;;;;;20.85;9.00;;;;;;;3.59;73.28;98822.02;2178788;80;29601;-60
2021/12/01 08:10:23;;;;;;;28.07;9.50;;;;;;;3.64;73.46;98815.22;2142774;83;31376;-59
2021/12/01 08:13:24;;;;;;;24.82;9.75;;;;;;;3.69;73.32;98819.81;2221195;79;33418;-59
2021/12/01 08:16:26;;;;;;;22.45;9.35;;;;;;;3.76;73.62;98805.83;2197290;80;29703;-58
2021/12/01 08:19:28;;;;;;;24.00;9.85;;;;;;;3.84;73.57;98798.41;2217720;80;27582;-59
2021/12/01 08:22:30;;;;;;;29.75;9.38;;;;;;;3.91;73.48;98795.00;2216829;80;29241;-61
2021/12/01 08:25:33;;;;;;;20.75;9.13;;;;;;;4.00;73.63;98796.36;2205741;80;32442;-59
2021/12/01 08:28:34;;;;;;;30.32;9.48;;;;;;;4.06;73.27;98795.60;2184280;80;33426;-56
2021/12/01 08:31:36;;;;;;;28.65;10.53;;;;;;;4.09;73.41;98793.27;2186311;80;30290;-58
2021/12/01 08:34:38;;;;;;;25.95;11.12;;;;;;;4.10;73.14;98783.94;2199265;80;27701;-58
2021/12/01 08:37:40;;;;;;;30.90;12.93;;;;;;;4.10;73.18;98778.62;2176205;81;30085;-60
2021/12/01 08:40:42;;;;;;;25.97;11.22;;;;;;;4.13;73.24;98779.42;2194815;80;31830;-60
2021/12/01 08:43:44;;;;;;;26.37;10.20;;;;;;;4.15;73.48;98779.73;2179750;80;33409;-69
2021/12/01 08:46:46;;;;;;;25.82;9.38;;;;;;;4.20;73.34;98774.20;2179037;80;30543;-63
2021/12/01 08:49:48;;;;;;;23.45;10.20;;;;;;;4.20;73.20;98766.25;2107378;84;27708;-59
2021/12/01 08:52:50;;;;;;;29.63;11.12;;;;;;;4.24;73.31;98764.69;2195616;81;29550;-62
2021/12/01 08:55:52;;;;;;;20.92;9.70;;;;;;;4.26;73.49;98764.16;2195507;80;32397;-63
2021/12/01 08:58:54;;;;;;;21.00;9.10;;;;;;;4.28;73.50;98753.50;2116168;82;34104;-59
2021/12/01 09:01:56;;;;;;;22.42;9.83;;;;;;;4.31;73.40;98746.69;2185840;81;30502;-59
2021/12/01 09:04:59;;;;;;;20.00;9.45;;;;;;;4.34;73.39;98743.05;2185499;81;28240;-59
2021/12/01 09:08:01;;;;;;;25.80;10.08;;;;;;;4.36;73.50;98729.26;2189400;81;29940;-59
2021/12/01 09:11:04;;;;;;;17.95;7.65;;;;;;;4.40;73.65;98723.72;2189107;81;32352;-60
2021/12/01 09:14:07;;;;;;;22.17;8.53;;;;;;;4.46;73.42;98715.92;2187673;81;33016;-58
2021/12/01 09:17:10;;;;;;;19.15;9.03;;;;;;;4.55;73.70;98710.63;2185144;81;29487;-59
2021/12/01 09:20:12;;;;;;;25.30;10.35;;;;;;;4.64;73.74;98702.67;2185548;81;27668;-59
2021/12/01 09:23:15;;;;;;;18.57;9.75;;;;;;;4.72;73.88;98688.53;2187858;81;30063;-59
2021/12/01 09:26:17;;;;;;;15.48;9.15;;;;;;;4.80;73.79;98686.84;2188354;81;31888;-59
2021/12/01 09:29:19;;;;;;;17.70;7.97;;;;;;;4.89;73.67;98678.38;2189226;81;34151;-61
2021/12/01 09:32:21;;;;;;;22.87;10.23;;;;;;;4.97;73.50;98668.69;2189564;81;29341;-61
2021/12/01 09:35:24;;;;;;;20.08;9.38;;;;;;;5.03;73.50;98664.39;2186862;81;27752;-59
2021/12/01 09:38:26;;;;;;;19.27;9.28;;;;;;;5.07;73.41;98661.94;2185613;81;29912;-59
2021/12/01 09:41:29;;;;;;;24.63;10.78;;;;;;;5.05;73.12;98665.63;2185677;81;32363;-60
2021/12/01 09:44:34;;;;;;;20.62;9.75;;;;;;;5.06;73.43;98654.06;2151833;82;33260;-61
2021/12/01 09:47:36;;;;;;;19.73;10.50;;;;;;;5.09;73.41;98647.27;2177495;81;30171;-62
2021/12/01 09:50:38;;;;;;;21.05;10.75;;;;;;;5.10;73.41;98645.85;2189276;81;27670;-60
2021/12/01 09:53:40;;;;;;;18.62;9.00;;;;;;;5.12;73.45;98644.45;2189392;79;28906;-60
2021/12/01 09:56:43;;;;;;;22.50;9.95;;;;;;;5.12;73.32;98639.99;2192183;79;31889;-59
2021/12/01 09:59:45;;;;;;;23.32;11.33;;;;;;;5.17;73.54;98633.10;2180312;80;34127;-59
2021/12/01 10:02:46;;;;;;;26.25;12.70;;;;;;;5.22;73.65;98633.72;2178885;81;29150;-60
2021/12/01 10:06:03;;;;;;;29.95;14.75;;;;;;;5.28;73.59;98625.42;2178597;81;27626;-59
2021/12/01 10:09:08;;;;;;;23.73;13.68;;;;;;;5.37;73.69;98625.39;2188642;80;28705;-61
2021/12/01 10:12:11;;;;;;;31.05;16.23;;;;;;;5.48;73.77;98622.11;2217558;80;31823;-61
2021/12/01 10:15:13;;;;;;;19.48;8.63;;;;;;;5.58;73.40;98620.67;2143483;83;33764;-59
2021/12/01 10:18:16;;;;;;;25.32;12.80;;;;;;;5.63;73.27;98610.62;2234911;79;29091;-61
2021/12/01 10:21:31;;;;;;;27.17;14.35;;;;;;;5.71;73.49;98607.52;2196074;79;27638;-59
2021/12/01 10:24:36;;;;;;;26.33;13.70;;;;;;;5.81;73.42;98601.70;2193300;81;29086;-59
2021/12/01 10:27:39;;;;;;;19.87;10.32;;;;;;;5.90;73.51;98601.16;2195794;79;31807;-58
2021/12/01 10:30:45;;;;;;;21.85;10.10;;;;;;;5.93;73.02;98589.90;2195305;80;34210;-64
2021/12/01 10:33:47;;;;;;;22.45;11.60;;;;;;;5.94;72.89;98582.77;2195353;81;29448;-64
2021/12/01 10:37:07;;;;;;;25.90;15.08;;;;;;;5.95;72.98;98580.98;2225654;79;28266;-64
2021/12/01 10:40:21;;;;;;;32.48;17.82;;;;;;;5.99;73.18;98574.06;2234698;79;28705;-58
2021/12/01 10:43:25;;;;;;;34.38;17.07;;;;;;;6.05;73.09;98555.59;2235099;79;31650;-60
2021/12/01 10:46:27;;;;;;;93.55;53.80;;;;;;;6.11;73.05;98550.38;2171125;81;33920;-58
2021/12/01 10:49:40;;;;;;;53.80;27.52;;;;;;;6.12;72.95;98542.33;2195563;81;30259;-58
2021/12/01 10:52:47;;;;;;;41.92;21.80;;;;;;;6.21;73.21;98535.58;2195732;81;27707;-72
2021/12/01 10:55:59;;;;;;;30.70;15.45;;;;;;;6.30;73.31;98520.87;2195801;81;28716;-70
2021/12/01 10:59:14;;;;;;;18.57;9.65;;;;;;;6.36;73.30;98511.20;2232346;79;31049;-70
2021/12/01 11:02:19;;;;;;;12.37;7.50;;;;;;;6.42;73.32;98500.65;2239726;79;34555;-61
2021/12/01 11:05:34;;;;;;;34.63;19.33;;;;;;;6.48;73.33;98493.14;2153248;82;29351;-58
2021/12/01 11:08:40;;;;;;;16.62;10.75;;;;;;;6.54;73.63;98492.77;2228497;79;27702;-64
2021/12/01 11:11:50;;;;;;;14.25;9.93;;;;;;;6.65;73.80;98481.92;2186984;79;28574;-59
2021/12/01 11:14:52;;;;;;;16.48;8.58;;;;;;;6.71;73.67;98476.68;2185650;81;31497;-57
2021/12/01 11:17:56;;;;;;;16.57;7.97;;;;;;;6.76;73.72;98463.95;2170531;81;34088;-58
2021/12/01 11:21:01;;;;;;;25.95;15.40;;;;;;;6.76;73.70;98451.97;2087835;84;30128;-57
2021/12/01 11:24:09;;;;;;;14.05;7.33;;;;;;;6.78;73.90;98440.30;2186247;81;27687;-58
2021/12/01 11:27:11;;;;;;;15.78;7.78;;;;;;;6.81;73.85;98433.91;2185958;81;29471;-58
2021/12/01 11:30:13;;;;;;;15.15;6.25;;;;;;;6.84;73.95;98435.05;2185683;81;30872;-58
2021/12/01 11:33:17;;;;;;;10.78;6.62;;;;;;;6.87;73.97;98424.18;2188989;79;34193;-58
2021/12/01 11:36:23;;;;;;;11.67;6.10;;;;;;;6.88;73.95;98414.41;2207717;79;29475;-57
2021/12/01 11:39:30;;;;;;;10.50;4.70;;;;;;;6.89;73.99;98396.16;2227928;79;27742;-57
2021/12/01 11:42:30;;;;;;;16.60;7.92;;;;;;;6.90;73.98;98389.38;2160068;82;29503;-58
2021/12/01 11:45:33;;;;;;;11.90;7.50;;;;;;;6.92;74.06;98378.66;2221336;79;31962;-57
2021/12/01 11:48:49;;;;;;;12.15;6.33;;;;;;;6.93;73.98;98371.89;2119119;82;33831;-58
2021/12/01 11:52:08;;;;;;;10.18;4.60;;;;;;;6.93;74.04;98365.23;2148299;82;29311;-58
2021/12/01 11:55:10;;;;;;;11.35;7.10;;;;;;;6.93;73.93;98359.07;2148687;82;27735;-64
2021/12/01 11:58:11;;;;;;;12.85;8.25;;;;;;;6.93;74.10;98339.95;2223916;79;29534;-68
2021/12/01 12:01:28;;;;;;;8.50;5.15;;;;;;;6.95;74.10;98349.17;2190174;79;30843;-71
2021/12/01 12:04:43;;;;;;;9.15;6.67;;;;;;;6.97;74.13;98346.78;2143793;83;32989;-60
2021/12/01 12:07:45;;;;;;;8.38;4.92;;;;;;;6.99;74.16;98330.69;2176361;79;35380;-57
2021/12/01 12:10:47;;;;;;;10.58;5.45;;;;;;;6.99;74.10;98328.90;2156134;81;27761;-58
2021/12/01 12:14:04;;;;;;;10.85;6.03;;;;;;;7.01;74.17;98319.47;2185256;81;29875;-71
2021/12/01 12:17:14;;;;;;;34.05;21.07;;;;;;;7.04;74.09;98311.73;2185657;81;31128;-57
2021/12/01 12:20:27;;;;;;;39.83;24.60;;;;;;;7.06;74.05;98295.19;2185875;79;33789;-67
2021/12/01 12:23:35;;;;;;;24.63;17.67;;;;;;;7.12;74.22;98304.94;2160129;82;29568;-58
2021/12/01 12:26:44;;;;;;;18.32;10.45;;;;;;;7.17;74.06;98298.00;2228740;79;27802;-71
2021/12/01 12:29:47;;;;;;;8.28;4.85;;;;;;;7.19;74.03;98303.20;2177686;79;45340;-61
2021/12/01 12:32:49;;;;;;;13.72;9.45;;;;;;;7.34;73.97;98299.98;2227985;78;32195;-64
2021/12/01 12:35:59;;;;;;;13.05;9.80;;;;;;;7.43;73.84;98300.20;2129843;82;33837;-59
2021/12/01 12:39:12;;;;;;;18.00;13.18;;;;;;;7.44;73.67;98288.59;2228274;79;29343;-58
2021/12/01 12:42:15;;;;;;;9.98;6.80;;;;;;;7.42;73.53;98274.52;2160387;82;27620;-58
2021/12/01 12:45:26;;;;;;;10.88;7.87;;;;;;;7.40;73.40;98273.77;2226636;79;29923;-64
2021/12/01 12:48:33;;;;;;;8.05;6.03;;;;;;;7.39;73.53;98261.88;2228341;79;32255;-58
2021/12/01 12:51:38;;;;;;;12.53;7.17;;;;;;;7.39;73.53;98258.75;2160027;82;33751;-58
2021/12/01 12:54:40;;;;;;;17.57;11.78;;;;;;;7.44;73.48;98246.43;2228494;79;28894;-60
2021/12/01 12:58:04;;;;;;;22.60;14.60;;;;;;;7.47;73.50;98248.02;2223894;79;27711;-57
2021/12/01 13:01:07;;;;;;;9.25;4.37;;;;;;;7.51;73.53;98253.52;2213365;80;29549;-57
2021/12/01 13:04:09;;;;;;;15.78;8.50;;;;;;;7.54;73.43;98243.98;2174144;81;32244;-62
2021/12/01 13:07:34;;;;;;;8.55;5.08;;;;;;;7.56;73.39;98250.89;2146122;81;32967;-57
2021/12/01 13:10:39;;;;;;;7.28;3.75;;;;;;;7.61;73.34;98249.26;2094167;84;29921;-58
2021/12/01 13:13:44;;;;;;;7.12;4.20;;;;;;;7.67;73.08;98242.63;2095044;85;27672;-58
2021/12/01 13:16:47;;;;;;;9.38;5.50;;;;;;;7.71;73.17;98239.64;2095302;84;28660;-58
2021/12/01 13:19:48;;;;;;;8.05;4.20;;;;;;;7.72;72.94;98228.48;2094308;83;31601;-58
2021/12/01 13:23:20;;;;;;;47.62;25.92;;;;;;;7.70;72.71;98220.61;2092939;85;33498;-61
2021/12/01 13:26:28;;;;;;;23.02;11.97;;;;;;;7.64;72.56;98227.70;2092964;85;29854;-61
2021/12/01 13:29:28;;;;;;;46.42;26.17;;;;;;;7.55;72.39;98231.86;2093139;85;27717;-58
2021/12/01 13:32:30;;;;;;;37.98;20.88;;;;;;;7.50;72.48;98223.83;2092970;85;29297;-61
2021/12/01 13:35:32;;;;;;;53.65;28.32;;;;;;;7.47;72.53;98222.24;2124161;83;31501;-58
2021/12/01 13:38:35;;;;;;;67.35;38.08;;;;;;;7.46;72.60;98224.53;2130959;83;32960;-60
2021/12/01 13:41:49;;;;;;;34.58;21.65;;;;;;;7.48;72.56;98225.75;2130451;83;30197;-58
2021/12/01 13:44:53;;;;;;;27.75;15.72;;;;;;;7.48;72.57;98233.73;2130889;83;27715;-58
2021/12/01 13:47:55;;;;;;;13.83;9.05;;;;;;;7.47;72.57;98228.91;2161498;81;28863;-60
2021/12/01 13:51:10;;;;;;;58.80;24.55;;;;;;;7.50;72.44;98224.70;2178889;81;31405;-65
2021/12/01 13:54:18;;;;;;;;;;;;;;;7.54;72.39;98216.84;2180218;81;34342;-62
2021/12/01 13:57:21;;;;;;;40.20;21.57;;;;;;;7.59;72.28;98212.53;2193161;80;29324;-65
2021/12/01 14:00:42;;;;;;;7.80;4.22;;;;;;;7.61;72.26;98211.95;2199483;80;27703;-58
2021/12/01 14:04:04;;;;;;;10.93;6.58;;;;;;;7.60;72.10;98208.42;2189046;78;28700;-54
2021/12/01 14:07:07;;;;;;;23.62;10.53;;;;;;;7.59;72.03;98205.38;2177766;81;31819;-57
2021/12/01 14:10:32;;;;;;;19.82;10.20;;;;;;;7.57;72.07;98188.64;2180149;80;32998;-60
2021/12/01 14:13:34;;;;;;;82.37;35.28;;;;;;;7.56;72.00;98188.77;2187135;78;37170;-62
2021/12/01 14:16:37;;;;;;;25.85;11.90;;;;;;;7.53;71.89;98179.16;2192633;80;27798;-64
2021/12/01 14:19:39;;;;;;;28.80;14.45;;;;;;;7.46;71.76;98169.92;2130492;81;29947;-58
2021/12/01 14:22:45;;;;;;;24.57;12.82;;;;;;;7.44;71.68;98162.52;2130786;81;32076;-63
2021/12/01 14:25:50;;;;;;;24.72;12.15;;;;;;;7.40;71.70;98159.23;2138044;81;34270;-62
2021/12/01 14:28:57;;;;;;;;;;;;;;;7.36;71.52;98153.73;2211422;78;30539;-58
2021/12/01 14:32:10;;;;;;;24.70;11.48;;;;;;;7.34;71.60;98152.16;2188776;79;27768;-66
2021/12/01 14:35:13;;;;;;;38.40;17.35;;;;;;;7.29;71.42;98145.34;2220359;78;28664;-60